sensor_id;sensor_type;location;lat;lon;timestamp;P1;durP1;ratioP1;P2;durP2;ratioP2
23260;SDS011;11799;47.740;-3.390;2022-08-24T00:00:51;4.93;;;1.65;;
23260;SDS011;11799;47.740;-3.390;2022-08-24T00:03:17;3.83;;;1.45;;
23260;SDS011;11799;47.740;-3.390;2022-08-24T00:05:43;2.45;;;1.30;;
23260;SDS011;11799;47.740;-3.390;2022-08-24T00:08:09;2.50;;;1.48;;
23260;SDS011;11799;47.740;-3.390;2022-08-24T00:10:34;2.60;;;1.30;;
23260;SDS011;11799;47.740;-3.390;2022-08-24T00:13:00;2.95;;;1.40;;
23260;SDS011;11799;47.740;-3.390;2022-08-24T00:15:25;1.67;;;1.17;;
23260;SDS011;11799;47.740;-3.390;2022-08-24T00:17:51;2.28;;;1.20;;
23260;SDS011;11799;47.740;-3.390;2022-08-24T00:20:17;4.55;;;1.40;;
23260;SDS011;11799;47.740;-3.390;2022-08-24T00:22:43;1.85;;;1.20;;
23260;SDS011;11799;47.740;-3.390;2022-08-24T00:25:09;3.08;;;1.42;;
23260;SDS011;11799;47.740;-3.390;2022-08-24T00:27:37;1.77;;;1.50;;
23260;SDS011;11799;47.740;-3.390;2022-08-24T00:30:06;1.48;;;1.00;;
23260;SDS011;11799;47.740;-3.390;2022-08-24T00:32:34;1.23;;;1.13;;
23260;SDS011;11799;47.740;-3.390;2022-08-24T00:35:03;1.83;;;1.17;;
23260;SDS011;11799;47.740;-3.390;2022-08-24T00:37:33;1.20;;;1.10;;
23260;SDS011;11799;47.740;-3.390;2022-08-24T00:39:59;2.67;;;1.52;;
23260;SDS011;11799;47.740;-3.390;2022-08-24T00:42:25;2.08;;;1.20;;
23260;SDS011;11799;47.740;-3.390;2022-08-24T00:44:51;1.88;;;1.10;;
23260;SDS011;11799;47.740;-3.390;2022-08-24T00:47:21;3.05;;;1.20;;
23260;SDS011;11799;47.740;-3.390;2022-08-24T00:50:04;3.10;;;1.20;;
23260;SDS011;11799;47.740;-3.390;2022-08-24T00:52:33;1.50;;;1.33;;
23260;SDS011;11799;47.740;-3.390;2022-08-24T00:55:00;4.78;;;1.60;;
23260;SDS011;11799;47.740;-3.390;2022-08-24T00:57:31;6.03;;;1.10;;
23260;SDS011;11799;47.740;-3.390;2022-08-24T01:00:04;3.95;;;1.05;;
23260;SDS011;11799;47.740;-3.390;2022-08-24T01:02:34;1.48;;;1.00;;
23260;SDS011;11799;47.740;-3.390;2022-08-24T01:05:05;3.88;;;1.38;;
23260;SDS011;11799;47.740;-3.390;2022-08-24T01:07:32;2.00;;;0.98;;
23260;SDS011;11799;47.740;-3.390;2022-08-24T01:10:00;1.13;;;1.02;;
23260;SDS011;11799;47.740;-3.390;2022-08-24T01:12:30;2.83;;;1.15;;
23260;SDS011;11799;47.740;-3.390;2022-08-24T01:14:59;1.40;;;1.20;;
23260;SDS011;11799;47.740;-3.390;2022-08-24T01:17:26;1.67;;;1.10;;
23260;SDS011;11799;47.740;-3.390;2022-08-24T01:20:12;3.47;;;1.00;;
23260;SDS011;11799;47.740;-3.390;2022-08-24T01:25:30;3.22;;;0.90;;
23260;SDS011;11799;47.740;-3.390;2022-08-24T01:27:59;1.10;;;1.00;;
23260;SDS011;11799;47.740;-3.390;2022-08-24T01:30:30;2.30;;;1.00;;
23260;SDS011;11799;47.740;-3.390;2022-08-24T01:32:57;1.83;;;0.98;;
23260;SDS011;11799;47.740;-3.390;2022-08-24T01:35:24;1.90;;;1.00;;
23260;SDS011;11799;47.740;-3.390;2022-08-24T01:37:51;1.95;;;1.00;;
23260;SDS011;11799;47.740;-3.390;2022-08-24T01:40:20;2.20;;;1.00;;
23260;SDS011;11799;47.740;-3.390;2022-08-24T01:42:54;2.58;;;1.00;;
23260;SDS011;11799;47.740;-3.390;2022-08-24T01:45:20;2.42;;;1.25;;
23260;SDS011;11799;47.740;-3.390;2022-08-24T01:47:46;4.13;;;0.90;;
23260;SDS011;11799;47.740;-3.390;2022-08-24T01:50:11;2.85;;;1.10;;
23260;SDS011;11799;47.740;-3.390;2022-08-24T01:52:38;1.58;;;1.00;;
23260;SDS011;11799;47.740;-3.390;2022-08-24T01:55:10;0.80;;;0.80;;
23260;SDS011;11799;47.740;-3.390;2022-08-24T01:57:38;1.80;;;1.05;;
23260;SDS011;11799;47.740;-3.390;2022-08-24T02:00:06;2.03;;;1.25;;
23260;SDS011;11799;47.740;-3.390;2022-08-24T02:02:38;1.33;;;1.00;;
23260;SDS011;11799;47.740;-3.390;2022-08-24T02:05:06;1.23;;;0.95;;
23260;SDS011;11799;47.740;-3.390;2022-08-24T02:07:32;2.47;;;1.13;;
23260;SDS011;11799;47.740;-3.390;2022-08-24T02:09:58;4.15;;;1.25;;
23260;SDS011;11799;47.740;-3.390;2022-08-24T02:12:24;3.78;;;1.10;;
23260;SDS011;11799;47.740;-3.390;2022-08-24T02:14:51;1.13;;;0.90;;
23260;SDS011;11799;47.740;-3.390;2022-08-24T02:17:17;1.10;;;1.00;;
23260;SDS011;11799;47.740;-3.390;2022-08-24T02:19:44;2.80;;;1.10;;
23260;SDS011;11799;47.740;-3.390;2022-08-24T02:22:10;2.97;;;1.20;;
23260;SDS011;11799;47.740;-3.390;2022-08-24T02:24:37;3.53;;;1.30;;
23260;SDS011;11799;47.740;-3.390;2022-08-24T02:27:03;2.17;;;1.10;;
23260;SDS011;11799;47.740;-3.390;2022-08-24T02:29:30;2.75;;;1.10;;
23260;SDS011;11799;47.740;-3.390;2022-08-24T02:31:56;2.40;;;1.17;;
23260;SDS011;11799;47.740;-3.390;2022-08-24T02:34:22;2.85;;;1.10;;
23260;SDS011;11799;47.740;-3.390;2022-08-24T02:36:48;4.10;;;0.98;;
23260;SDS011;11799;47.740;-3.390;2022-08-24T02:39:14;1.48;;;1.05;;
23260;SDS011;11799;47.740;-3.390;2022-08-24T02:41:42;2.28;;;1.23;;
23260;SDS011;11799;47.740;-3.390;2022-08-24T02:44:07;2.45;;;1.10;;
23260;SDS011;11799;47.740;-3.390;2022-08-24T02:46:33;1.83;;;1.00;;
23260;SDS011;11799;47.740;-3.390;2022-08-24T02:49:00;1.35;;;0.90;;
23260;SDS011;11799;47.740;-3.390;2022-08-24T02:51:29;2.08;;;1.13;;
23260;SDS011;11799;47.740;-3.390;2022-08-24T02:53:57;3.53;;;1.05;;
23260;SDS011;11799;47.740;-3.390;2022-08-24T02:56:25;1.33;;;1.17;;
23260;SDS011;11799;47.740;-3.390;2022-08-24T02:58:54;2.10;;;1.10;;
23260;SDS011;11799;47.740;-3.390;2022-08-24T03:01:24;2.70;;;1.02;;
23260;SDS011;11799;47.740;-3.390;2022-08-24T03:03:52;1.58;;;1.10;;
23260;SDS011;11799;47.740;-3.390;2022-08-24T03:06:18;2.05;;;1.00;;
23260;SDS011;11799;47.740;-3.390;2022-08-24T03:08:44;1.38;;;1.00;;
23260;SDS011;11799;47.740;-3.390;2022-08-24T03:11:10;1.58;;;1.10;;
23260;SDS011;11799;47.740;-3.390;2022-08-24T03:13:37;3.17;;;1.08;;
23260;SDS011;11799;47.740;-3.390;2022-08-24T03:16:03;2.38;;;0.95;;
23260;SDS011;11799;47.740;-3.390;2022-08-24T03:18:30;2.08;;;1.10;;
23260;SDS011;11799;47.740;-3.390;2022-08-24T03:20:56;2.90;;;1.05;;
23260;SDS011;11799;47.740;-3.390;2022-08-24T03:23:24;1.88;;;1.20;;
23260;SDS011;11799;47.740;-3.390;2022-08-24T03:25:50;1.35;;;1.00;;
23260;SDS011;11799;47.740;-3.390;2022-08-24T03:28:17;1.20;;;1.10;;
23260;SDS011;11799;47.740;-3.390;2022-08-24T03:30:44;3.35;;;1.20;;
23260;SDS011;11799;47.740;-3.390;2022-08-24T03:33:10;1.77;;;1.35;;
23260;SDS011;11799;47.740;-3.390;2022-08-24T03:35:36;2.17;;;1.20;;
23260;SDS011;11799;47.740;-3.390;2022-08-24T03:38:02;2.08;;;1.10;;
23260;SDS011;11799;47.740;-3.390;2022-08-24T03:40:28;3.20;;;1.25;;
23260;SDS011;11799;47.740;-3.390;2022-08-24T03:42:57;1.75;;;1.02;;
23260;SDS011;11799;47.740;-3.390;2022-08-24T03:45:26;1.30;;;1.20;;
23260;SDS011;11799;47.740;-3.390;2022-08-24T03:47:53;1.75;;;1.27;;
23260;SDS011;11799;47.740;-3.390;2022-08-24T03:50:20;1.15;;;1.02;;
23260;SDS011;11799;47.740;-3.390;2022-08-24T03:52:47;1.23;;;1.13;;
23260;SDS011;11799;47.740;-3.390;2022-08-24T03:55:12;1.92;;;1.13;;
23260;SDS011;11799;47.740;-3.390;2022-08-24T03:57:39;3.25;;;1.13;;
23260;SDS011;11799;47.740;-3.390;2022-08-24T04:00:07;1.98;;;1.30;;
23260;SDS011;11799;47.740;-3.390;2022-08-24T04:02:40;2.00;;;1.13;;
23260;SDS011;11799;47.740;-3.390;2022-08-24T04:05:07;1.65;;;1.00;;
23260;SDS011;11799;47.740;-3.390;2022-08-24T04:07:34;2.42;;;1.15;;
23260;SDS011;11799;47.740;-3.390;2022-08-24T04:10:00;1.88;;;1.30;;
23260;SDS011;11799;47.740;-3.390;2022-08-24T04:12:26;1.40;;;1.10;;
23260;SDS011;11799;47.740;-3.390;2022-08-24T04:14:52;1.40;;;1.20;;
23260;SDS011;11799;47.740;-3.390;2022-08-24T04:17:20;1.75;;;1.00;;
23260;SDS011;11799;47.740;-3.390;2022-08-24T04:19:47;2.17;;;1.15;;
23260;SDS011;11799;47.740;-3.390;2022-08-24T04:22:26;3.08;;;1.30;;
23260;SDS011;11799;47.740;-3.390;2022-08-24T04:24:54;3.05;;;1.45;;
23260;SDS011;11799;47.740;-3.390;2022-08-24T04:27:20;2.50;;;1.65;;
23260;SDS011;11799;47.740;-3.390;2022-08-24T04:29:46;1.63;;;1.40;;
23260;SDS011;11799;47.740;-3.390;2022-08-24T04:32:12;3.15;;;1.50;;
23260;SDS011;11799;47.740;-3.390;2022-08-24T04:34:41;4.22;;;1.73;;
23260;SDS011;11799;47.740;-3.390;2022-08-24T04:39:36;3.50;;;2.00;;
23260;SDS011;11799;47.740;-3.390;2022-08-24T04:42:15;4.15;;;1.50;;
23260;SDS011;11799;47.740;-3.390;2022-08-24T04:44:43;2.90;;;1.80;;
23260;SDS011;11799;47.740;-3.390;2022-08-24T04:47:08;2.10;;;1.70;;
23260;SDS011;11799;47.740;-3.390;2022-08-24T04:49:36;3.35;;;1.40;;
23260;SDS011;11799;47.740;-3.390;2022-08-24T04:52:03;2.00;;;1.67;;
23260;SDS011;11799;47.740;-3.390;2022-08-24T04:54:30;2.95;;;1.70;;
23260;SDS011;11799;47.740;-3.390;2022-08-24T04:57:19;4.13;;;2.00;;
23260;SDS011;11799;47.740;-3.390;2022-08-24T04:59:46;2.67;;;1.80;;
23260;SDS011;11799;47.740;-3.390;2022-08-24T05:02:11;3.00;;;2.05;;
23260;SDS011;11799;47.740;-3.390;2022-08-24T05:04:37;2.55;;;2.10;;
23260;SDS011;11799;47.740;-3.390;2022-08-24T05:07:05;3.80;;;1.90;;
23260;SDS011;11799;47.740;-3.390;2022-08-24T05:09:31;3.97;;;2.08;;
23260;SDS011;11799;47.740;-3.390;2022-08-24T05:11:58;3.63;;;2.00;;
23260;SDS011;11799;47.740;-3.390;2022-08-24T05:14:25;4.80;;;1.88;;
23260;SDS011;11799;47.740;-3.390;2022-08-24T05:16:53;2.90;;;1.77;;
23260;SDS011;11799;47.740;-3.390;2022-08-24T05:19:18;5.20;;;2.00;;
23260;SDS011;11799;47.740;-3.390;2022-08-24T05:21:45;2.25;;;1.90;;
23260;SDS011;11799;47.740;-3.390;2022-08-24T05:24:11;3.53;;;1.80;;
23260;SDS011;11799;47.740;-3.390;2022-08-24T05:26:37;2.80;;;1.70;;
23260;SDS011;11799;47.740;-3.390;2022-08-24T05:29:03;3.30;;;1.75;;
23260;SDS011;11799;47.740;-3.390;2022-08-24T05:31:41;5.75;;;2.10;;
23260;SDS011;11799;47.740;-3.390;2022-08-24T05:34:08;2.75;;;1.63;;
23260;SDS011;11799;47.740;-3.390;2022-08-24T05:36:35;2.78;;;1.38;;
23260;SDS011;11799;47.740;-3.390;2022-08-24T05:39:07;2.63;;;1.58;;
23260;SDS011;11799;47.740;-3.390;2022-08-24T05:41:37;3.50;;;1.65;;
23260;SDS011;11799;47.740;-3.390;2022-08-24T05:44:12;2.20;;;1.70;;
23260;SDS011;11799;47.740;-3.390;2022-08-24T05:46:40;4.63;;;2.00;;
23260;SDS011;11799;47.740;-3.390;2022-08-24T05:49:07;2.67;;;1.60;;
23260;SDS011;11799;47.740;-3.390;2022-08-24T05:51:33;2.00;;;1.73;;
23260;SDS011;11799;47.740;-3.390;2022-08-24T05:54:04;3.72;;;2.08;;
23260;SDS011;11799;47.740;-3.390;2022-08-24T05:56:44;3.30;;;2.10;;
23260;SDS011;11799;47.740;-3.390;2022-08-24T05:59:11;5.35;;;1.88;;
23260;SDS011;11799;47.740;-3.390;2022-08-24T06:01:36;4.13;;;1.90;;
23260;SDS011;11799;47.740;-3.390;2022-08-24T06:04:03;7.90;;;2.10;;
23260;SDS011;11799;47.740;-3.390;2022-08-24T06:06:30;3.17;;;1.73;;
23260;SDS011;11799;47.740;-3.390;2022-08-24T06:08:57;2.90;;;2.03;;
23260;SDS011;11799;47.740;-3.390;2022-08-24T06:11:26;3.35;;;1.90;;
23260;SDS011;11799;47.740;-3.390;2022-08-24T06:13:52;2.80;;;1.80;;
23260;SDS011;11799;47.740;-3.390;2022-08-24T06:16:20;2.88;;;2.13;;
23260;SDS011;11799;47.740;-3.390;2022-08-24T06:18:47;4.35;;;1.95;;
23260;SDS011;11799;47.740;-3.390;2022-08-24T06:21:15;4.72;;;2.03;;
23260;SDS011;11799;47.740;-3.390;2022-08-24T06:23:42;3.55;;;1.58;;
23260;SDS011;11799;47.740;-3.390;2022-08-24T06:26:09;3.30;;;1.80;;
23260;SDS011;11799;47.740;-3.390;2022-08-24T06:28:55;7.07;;;1.98;;
23260;SDS011;11799;47.740;-3.390;2022-08-24T06:31:21;3.28;;;1.88;;
23260;SDS011;11799;47.740;-3.390;2022-08-24T06:33:52;3.20;;;1.88;;
23260;SDS011;11799;47.740;-3.390;2022-08-24T06:36:19;3.65;;;2.25;;
23260;SDS011;11799;47.740;-3.390;2022-08-24T06:38:46;6.03;;;2.00;;
23260;SDS011;11799;47.740;-3.390;2022-08-24T06:41:12;4.93;;;1.88;;
23260;SDS011;11799;47.740;-3.390;2022-08-24T06:43:39;3.92;;;1.85;;
23260;SDS011;11799;47.740;-3.390;2022-08-24T06:46:11;3.97;;;1.90;;
23260;SDS011;11799;47.740;-3.390;2022-08-24T06:48:44;2.92;;;1.75;;
23260;SDS011;11799;47.740;-3.390;2022-08-24T06:51:11;4.75;;;2.08;;
23260;SDS011;11799;47.740;-3.390;2022-08-24T06:53:38;3.35;;;1.88;;
23260;SDS011;11799;47.740;-3.390;2022-08-24T06:56:05;3.15;;;2.00;;
23260;SDS011;11799;47.740;-3.390;2022-08-24T06:58:32;7.25;;;1.98;;
23260;SDS011;11799;47.740;-3.390;2022-08-24T07:03:34;4.28;;;2.25;;
23260;SDS011;11799;47.740;-3.390;2022-08-24T07:06:26;3.75;;;1.98;;
23260;SDS011;11799;47.740;-3.390;2022-08-24T07:08:57;4.00;;;1.70;;
23260;SDS011;11799;47.740;-3.390;2022-08-24T07:11:24;2.90;;;1.70;;
23260;SDS011;11799;47.740;-3.390;2022-08-24T07:13:50;5.10;;;1.67;;
23260;SDS011;11799;47.740;-3.390;2022-08-24T07:16:17;2.40;;;1.60;;
23260;SDS011;11799;47.740;-3.390;2022-08-24T07:18:46;1.50;;;1.30;;
23260;SDS011;11799;47.740;-3.390;2022-08-24T07:21:12;4.65;;;1.80;;
23260;SDS011;11799;47.740;-3.390;2022-08-24T07:23:44;6.57;;;1.80;;
23260;SDS011;11799;47.740;-3.390;2022-08-24T07:26:13;4.25;;;1.80;;
23260;SDS011;11799;47.740;-3.390;2022-08-24T07:28:42;2.22;;;1.50;;
23260;SDS011;11799;47.740;-3.390;2022-08-24T07:31:08;2.88;;;1.58;;
23260;SDS011;11799;47.740;-3.390;2022-08-24T07:33:40;3.17;;;1.75;;
23260;SDS011;11799;47.740;-3.390;2022-08-24T07:36:06;1.95;;;1.27;;
23260;SDS011;11799;47.740;-3.390;2022-08-24T07:38:32;2.83;;;1.30;;
23260;SDS011;11799;47.740;-3.390;2022-08-24T07:40:59;4.50;;;0.95;;
23260;SDS011;11799;47.740;-3.390;2022-08-24T07:43:25;2.85;;;0.77;;
23260;SDS011;11799;47.740;-3.390;2022-08-24T07:45:52;1.05;;;0.90;;
23260;SDS011;11799;47.740;-3.390;2022-08-24T07:48:18;1.70;;;0.70;;
23260;SDS011;11799;47.740;-3.390;2022-08-24T07:50:45;2.83;;;0.90;;
23260;SDS011;11799;47.740;-3.390;2022-08-24T07:53:12;1.75;;;0.82;;
23260;SDS011;11799;47.740;-3.390;2022-08-24T07:55:37;2.55;;;0.68;;
23260;SDS011;11799;47.740;-3.390;2022-08-24T07:58:03;1.48;;;0.70;;
23260;SDS011;11799;47.740;-3.390;2022-08-24T08:00:30;2.33;;;0.65;;
23260;SDS011;11799;47.740;-3.390;2022-08-24T08:02:59;0.75;;;0.55;;
23260;SDS011;11799;47.740;-3.390;2022-08-24T08:05:28;2.05;;;0.70;;
23260;SDS011;11799;47.740;-3.390;2022-08-24T08:07:54;3.00;;;0.70;;
23260;SDS011;11799;47.740;-3.390;2022-08-24T08:10:20;3.25;;;0.90;;
23260;SDS011;11799;47.740;-3.390;2022-08-24T08:12:48;1.73;;;0.80;;
23260;SDS011;11799;47.740;-3.390;2022-08-24T08:15:14;1.45;;;0.90;;
23260;SDS011;11799;47.740;-3.390;2022-08-24T08:17:51;0.80;;;0.80;;
23260;SDS011;11799;47.740;-3.390;2022-08-24T08:20:19;1.27;;;0.70;;
23260;SDS011;11799;47.740;-3.390;2022-08-24T08:22:45;1.33;;;0.80;;
23260;SDS011;11799;47.740;-3.390;2022-08-24T08:25:53;1.67;;;0.80;;
23260;SDS011;11799;47.740;-3.390;2022-08-24T08:28:31;1.40;;;0.95;;
23260;SDS011;11799;47.740;-3.390;2022-08-24T08:30:58;4.85;;;1.08;;
23260;SDS011;11799;47.740;-3.390;2022-08-24T08:33:27;2.55;;;0.98;;
23260;SDS011;11799;47.740;-3.390;2022-08-24T08:36:05;1.75;;;1.17;;
23260;SDS011;11799;47.740;-3.390;2022-08-24T08:38:41;1.00;;;0.80;;
23260;SDS011;11799;47.740;-3.390;2022-08-24T08:44:03;1.85;;;1.00;;
23260;SDS011;11799;47.740;-3.390;2022-08-24T08:46:39;4.22;;;1.15;;
23260;SDS011;11799;47.740;-3.390;2022-08-24T08:55:20;1.95;;;1.20;;
23260;SDS011;11799;47.740;-3.390;2022-08-24T09:06:29;13.35;;;2.42;;
23260;SDS011;11799;47.740;-3.390;2022-08-24T09:08:49;2.10;;;1.17;;
23260;SDS011;11799;47.740;-3.390;2022-08-24T09:16:46;3.22;;;1.20;;
23260;SDS011;11799;47.740;-3.390;2022-08-24T09:30:24;3.03;;;1.10;;
23260;SDS011;11799;47.740;-3.390;2022-08-24T09:33:06;1.30;;;0.93;;
23260;SDS011;11799;47.740;-3.390;2022-08-24T09:55:01;2.25;;;1.10;;
23260;SDS011;11799;47.740;-3.390;2022-08-24T10:00:38;1.80;;;1.15;;
23260;SDS011;11799;47.740;-3.390;2022-08-24T10:06:09;1.55;;;1.00;;
23260;SDS011;11799;47.740;-3.390;2022-08-24T10:25:38;1.25;;;0.90;;
23260;SDS011;11799;47.740;-3.390;2022-08-24T10:33:34;1.25;;;0.80;;
23260;SDS011;11799;47.740;-3.390;2022-08-24T10:53:49;1.25;;;0.80;;
23260;SDS011;11799;47.740;-3.390;2022-08-24T10:56:21;1.50;;;0.70;;
23260;SDS011;11799;47.740;-3.390;2022-08-24T10:59:21;3.05;;;1.05;;
23260;SDS011;11799;47.740;-3.390;2022-08-24T11:04:28;2.00;;;1.17;;
23260;SDS011;11799;47.740;-3.390;2022-08-24T11:09:58;2.08;;;0.90;;
23260;SDS011;11799;47.740;-3.390;2022-08-24T11:12:33;1.83;;;1.00;;
23260;SDS011;11799;47.740;-3.390;2022-08-24T11:15:02;2.58;;;1.10;;
23260;SDS011;11799;47.740;-3.390;2022-08-24T11:18:00;3.03;;;1.00;;
23260;SDS011;11799;47.740;-3.390;2022-08-24T11:20:29;1.60;;;0.95;;
23260;SDS011;11799;47.740;-3.390;2022-08-24T11:22:57;1.67;;;1.10;;
23260;SDS011;11799;47.740;-3.390;2022-08-24T11:25:28;2.55;;;0.90;;
23260;SDS011;11799;47.740;-3.390;2022-08-24T11:27:58;2.55;;;1.20;;
23260;SDS011;11799;47.740;-3.390;2022-08-24T11:30:29;1.60;;;1.10;;
23260;SDS011;11799;47.740;-3.390;2022-08-24T11:32:56;1.00;;;0.90;;
23260;SDS011;11799;47.740;-3.390;2022-08-24T11:35:25;1.52;;;1.17;;
23260;SDS011;11799;47.740;-3.390;2022-08-24T11:40:42;1.15;;;1.05;;
23260;SDS011;11799;47.740;-3.390;2022-08-24T11:43:18;3.50;;;1.05;;
23260;SDS011;11799;47.740;-3.390;2022-08-24T11:51:32;2.13;;;1.00;;
23260;SDS011;11799;47.740;-3.390;2022-08-24T11:59:41;6.68;;;1.10;;
23260;SDS011;11799;47.740;-3.390;2022-08-24T12:02:12;2.17;;;1.00;;
23260;SDS011;11799;47.740;-3.390;2022-08-24T12:07:39;1.48;;;0.98;;
23260;SDS011;11799;47.740;-3.390;2022-08-24T12:12:51;2.45;;;1.30;;
23260;SDS011;11799;47.740;-3.390;2022-08-24T12:15:32;1.17;;;1.00;;
23260;SDS011;11799;47.740;-3.390;2022-08-24T12:20:43;1.50;;;1.15;;
23260;SDS011;11799;47.740;-3.390;2022-08-24T12:25:58;2.47;;;1.00;;
23260;SDS011;11799;47.740;-3.390;2022-08-24T12:29:04;0.63;;;0.60;;
23260;SDS011;11799;47.740;-3.390;2022-08-24T12:34:02;0.73;;;0.70;;
23260;SDS011;11799;47.740;-3.390;2022-08-24T12:36:35;1.13;;;0.70;;
23260;SDS011;11799;47.740;-3.390;2022-08-24T12:39:12;1.98;;;0.90;;
23260;SDS011;11799;47.740;-3.390;2022-08-24T12:44:18;2.63;;;0.80;;
23260;SDS011;11799;47.740;-3.390;2022-08-24T12:46:51;1.48;;;0.90;;
23260;SDS011;11799;47.740;-3.390;2022-08-24T12:49:32;1.70;;;0.90;;
23260;SDS011;11799;47.740;-3.390;2022-08-24T12:52:13;0.77;;;0.70;;
23260;SDS011;11799;47.740;-3.390;2022-08-24T12:57:36;1.55;;;0.75;;
23260;SDS011;11799;47.740;-3.390;2022-08-24T13:00:21;1.08;;;0.75;;
23260;SDS011;11799;47.740;-3.390;2022-08-24T13:02:55;1.48;;;0.60;;
23260;SDS011;11799;47.740;-3.390;2022-08-24T13:05:23;0.65;;;0.65;;
23260;SDS011;11799;47.740;-3.390;2022-08-24T13:07:50;1.15;;;0.52;;
23260;SDS011;11799;47.740;-3.390;2022-08-24T13:33:41;0.75;;;0.60;;
23260;SDS011;11799;47.740;-3.390;2022-08-24T13:43:02;2.80;;;0.60;;
23260;SDS011;11799;47.740;-3.390;2022-08-24T13:45:46;1.00;;;0.70;;
23260;SDS011;11799;47.740;-3.390;2022-08-24T13:56:21;1.95;;;0.70;;
23260;SDS011;11799;47.740;-3.390;2022-08-24T14:12:21;0.95;;;0.63;;
23260;SDS011;11799;47.740;-3.390;2022-08-24T14:14:52;1.30;;;0.60;;
23260;SDS011;11799;47.740;-3.390;2022-08-24T14:17:35;0.82;;;0.70;;
23260;SDS011;11799;47.740;-3.390;2022-08-24T14:34:42;2.58;;;0.65;;
23260;SDS011;11799;47.740;-3.390;2022-08-24T14:40:22;2.30;;;0.70;;
23260;SDS011;11799;47.740;-3.390;2022-08-24T15:05:05;0.90;;;0.68;;
23260;SDS011;11799;47.740;-3.390;2022-08-24T15:07:56;1.40;;;0.80;;
23260;SDS011;11799;47.740;-3.390;2022-08-24T15:13:39;0.60;;;0.50;;
23260;SDS011;11799;47.740;-3.390;2022-08-24T15:16:10;3.90;;;0.70;;
23260;SDS011;11799;47.740;-3.390;2022-08-24T15:21:45;1.85;;;0.60;;
23260;SDS011;11799;47.740;-3.390;2022-08-24T15:26:57;1.15;;;0.70;;
23260;SDS011;11799;47.740;-3.390;2022-08-24T15:29:32;2.42;;;0.68;;
23260;SDS011;11799;47.740;-3.390;2022-08-24T15:34:32;1.35;;;0.63;;
23260;SDS011;11799;47.740;-3.390;2022-08-24T15:36:59;0.70;;;0.70;;
23260;SDS011;11799;47.740;-3.390;2022-08-24T15:39:26;0.52;;;0.50;;
23260;SDS011;11799;47.740;-3.390;2022-08-24T15:41:53;0.70;;;0.70;;
23260;SDS011;11799;47.740;-3.390;2022-08-24T15:44:27;1.17;;;0.70;;
23260;SDS011;11799;47.740;-3.390;2022-08-24T15:46:59;1.85;;;0.80;;
23260;SDS011;11799;47.740;-3.390;2022-08-24T15:49:28;0.60;;;0.60;;
23260;SDS011;11799;47.740;-3.390;2022-08-24T15:52:06;0.75;;;0.60;;
23260;SDS011;11799;47.740;-3.390;2022-08-24T15:54:39;2.60;;;0.50;;
23260;SDS011;11799;47.740;-3.390;2022-08-24T15:57:09;0.90;;;0.80;;
23260;SDS011;11799;47.740;-3.390;2022-08-24T15:59:52;0.95;;;0.75;;
23260;SDS011;11799;47.740;-3.390;2022-08-24T16:10:33;1.83;;;0.90;;
23260;SDS011;11799;47.740;-3.390;2022-08-24T16:13:06;1.55;;;0.77;;
23260;SDS011;11799;47.740;-3.390;2022-08-24T16:21:10;23.15;;;4.78;;
23260;SDS011;11799;47.740;-3.390;2022-08-24T16:23:39;2.05;;;1.20;;
23260;SDS011;11799;47.740;-3.390;2022-08-24T16:26:20;2.60;;;1.25;;
23260;SDS011;11799;47.740;-3.390;2022-08-24T16:28:46;1.95;;;1.15;;
23260;SDS011;11799;47.740;-3.390;2022-08-24T16:31:12;3.13;;;1.20;;
23260;SDS011;11799;47.740;-3.390;2022-08-24T16:34:20;2.25;;;1.23;;
23260;SDS011;11799;47.740;-3.390;2022-08-24T16:36:51;3.33;;;1.50;;
23260;SDS011;11799;47.740;-3.390;2022-08-24T16:39:17;4.00;;;1.40;;
23260;SDS011;11799;47.740;-3.390;2022-08-24T16:41:42;2.40;;;1.30;;
23260;SDS011;11799;47.740;-3.390;2022-08-24T16:44:08;1.40;;;1.30;;
23260;SDS011;11799;47.740;-3.390;2022-08-24T16:46:35;1.60;;;1.08;;
23260;SDS011;11799;47.740;-3.390;2022-08-24T16:49:01;1.90;;;1.40;;
23260;SDS011;11799;47.740;-3.390;2022-08-24T16:51:26;1.90;;;1.35;;
23260;SDS011;11799;47.740;-3.390;2022-08-24T16:53:52;2.35;;;1.27;;
23260;SDS011;11799;47.740;-3.390;2022-08-24T16:56:18;2.97;;;1.30;;
23260;SDS011;11799;47.740;-3.390;2022-08-24T16:58:45;1.63;;;1.00;;
23260;SDS011;11799;47.740;-3.390;2022-08-24T17:01:12;3.03;;;1.30;;
23260;SDS011;11799;47.740;-3.390;2022-08-24T17:03:38;2.88;;;1.20;;
23260;SDS011;11799;47.740;-3.390;2022-08-24T17:06:04;2.75;;;1.08;;
23260;SDS011;11799;47.740;-3.390;2022-08-24T17:08:30;1.35;;;1.20;;
23260;SDS011;11799;47.740;-3.390;2022-08-24T17:10:56;2.70;;;1.20;;
23260;SDS011;11799;47.740;-3.390;2022-08-24T17:13:22;3.22;;;0.98;;
23260;SDS011;11799;47.740;-3.390;2022-08-24T17:15:48;3.28;;;1.33;;
23260;SDS011;11799;47.740;-3.390;2022-08-24T17:18:13;1.58;;;1.20;;
23260;SDS011;11799;47.740;-3.390;2022-08-24T17:20:44;1.77;;;1.25;;
23260;SDS011;11799;47.740;-3.390;2022-08-24T17:23:10;2.28;;;1.23;;
23260;SDS011;11799;47.740;-3.390;2022-08-24T17:25:36;2.90;;;1.13;;
23260;SDS011;11799;47.740;-3.390;2022-08-24T17:28:04;4.75;;;1.00;;
23260;SDS011;11799;47.740;-3.390;2022-08-24T17:30:30;3.00;;;1.08;;
23260;SDS011;11799;47.740;-3.390;2022-08-24T17:32:56;2.25;;;1.10;;
23260;SDS011;11799;47.740;-3.390;2022-08-24T17:35:22;1.92;;;1.08;;
23260;SDS011;11799;47.740;-3.390;2022-08-24T17:37:48;2.35;;;1.17;;
23260;SDS011;11799;47.740;-3.390;2022-08-24T17:40:17;2.00;;;1.05;;
23260;SDS011;11799;47.740;-3.390;2022-08-24T17:42:44;3.17;;;1.00;;
23260;SDS011;11799;47.740;-3.390;2022-08-24T17:45:12;1.67;;;1.00;;
23260;SDS011;11799;47.740;-3.390;2022-08-24T17:47:39;2.13;;;1.80;;
23260;SDS011;11799;47.740;-3.390;2022-08-24T17:50:07;1.20;;;1.10;;
23260;SDS011;11799;47.740;-3.390;2022-08-24T17:52:35;1.20;;;1.10;;
23260;SDS011;11799;47.740;-3.390;2022-08-24T17:55:03;3.22;;;1.30;;
23260;SDS011;11799;47.740;-3.390;2022-08-24T17:57:29;1.33;;;1.20;;
23260;SDS011;11799;47.740;-3.390;2022-08-24T17:59:55;1.15;;;1.10;;
23260;SDS011;11799;47.740;-3.390;2022-08-24T18:02:20;1.27;;;0.90;;
23260;SDS011;11799;47.740;-3.390;2022-08-24T18:04:58;1.00;;;1.00;;
23260;SDS011;11799;47.740;-3.390;2022-08-24T18:07:24;0.95;;;0.95;;
23260;SDS011;11799;47.740;-3.390;2022-08-24T18:09:51;1.27;;;1.00;;
23260;SDS011;11799;47.740;-3.390;2022-08-24T18:12:18;1.58;;;1.13;;
23260;SDS011;11799;47.740;-3.390;2022-08-24T18:14:44;1.00;;;0.80;;
23260;SDS011;11799;47.740;-3.390;2022-08-24T18:17:11;0.90;;;0.90;;
23260;SDS011;11799;47.740;-3.390;2022-08-24T18:19:38;4.07;;;1.25;;
23260;SDS011;11799;47.740;-3.390;2022-08-24T18:22:03;2.45;;;1.10;;
23260;SDS011;11799;47.740;-3.390;2022-08-24T18:24:29;1.30;;;1.20;;
23260;SDS011;11799;47.740;-3.390;2022-08-24T18:26:57;0.88;;;0.88;;
23260;SDS011;11799;47.740;-3.390;2022-08-24T18:29:23;2.10;;;1.15;;
23260;SDS011;11799;47.740;-3.390;2022-08-24T18:31:48;0.98;;;0.80;;
23260;SDS011;11799;47.740;-3.390;2022-08-24T18:34:16;3.10;;;0.95;;
23260;SDS011;11799;47.740;-3.390;2022-08-24T18:36:41;8.02;;;1.35;;
23260;SDS011;11799;47.740;-3.390;2022-08-24T18:39:07;1.45;;;0.98;;
23260;SDS011;11799;47.740;-3.390;2022-08-24T18:41:33;1.00;;;1.00;;
23260;SDS011;11799;47.740;-3.390;2022-08-24T18:44:00;1.38;;;0.88;;
23260;SDS011;11799;47.740;-3.390;2022-08-24T18:46:26;4.45;;;1.75;;
23260;SDS011;11799;47.740;-3.390;2022-08-24T18:48:53;0.93;;;0.90;;
23260;SDS011;11799;47.740;-3.390;2022-08-24T18:51:19;3.05;;;1.10;;
23260;SDS011;11799;47.740;-3.390;2022-08-24T18:53:44;1.63;;;1.13;;
23260;SDS011;11799;47.740;-3.390;2022-08-24T18:56:11;1.63;;;1.17;;
23260;SDS011;11799;47.740;-3.390;2022-08-24T18:58:37;1.77;;;1.20;;
23260;SDS011;11799;47.740;-3.390;2022-08-24T19:01:02;2.25;;;1.20;;
23260;SDS011;11799;47.740;-3.390;2022-08-24T19:03:28;1.50;;;1.00;;
23260;SDS011;11799;47.740;-3.390;2022-08-24T19:05:53;1.10;;;1.00;;
23260;SDS011;11799;47.740;-3.390;2022-08-24T19:08:19;1.92;;;1.17;;